Time;durP1;ratioP1;P1;durP2;ratioP2;P2;SDS_P1;SDS_P2;PMS_P1;PMS_P2;Temp;Humidity;BMP_temperature;BMP_pressure;BME280_temperature;BME280_humidity;BME280_pressure;Samples;Min_cycle;Max_cycle;Signal;HPM_P1;HPM_P2
2023/04/01 00:01:18;;;;;;;7.45;4.20;;;;;;;12.27;nan;99447.75;4981990;28;20026;-45
2023/04/01 00:03:45;;;;;;;7.88;4.10;;;;;;;12.27;nan;99446.91;4985412;28;20092;-47
2023/04/01 00:06:15;;;;;;;6.68;3.67;;;;;;;12.27;nan;99447.75;4983478;28;20115;-47
2023/04/01 00:08:41;;;;;;;5.70;3.50;;;;;;;12.24;nan;99444.53;4983068;28;20046;-45
2023/04/01 00:11:06;;;;;;;7.00;3.25;;;;;;;12.22;nan;99451.75;4988821;28;20034;-44
2023/04/01 00:13:32;;;;;;;7.43;3.55;;;;;;;12.24;nan;99444.53;4983142;28;20121;-45
2023/04/01 00:15:58;;;;;;;5.25;3.08;;;;;;;12.22;nan;99443.81;4985553;28;20440;-45
2023/04/01 00:18:24;;;;;;;8.98;3.05;;;;;;;12.28;nan;99445.94;4984163;28;20050;-45
2023/04/01 00:20:51;;;;;;;6.63;3.42;;;;;;;12.29;nan;99450.25;4979588;28;20454;-46
2023/04/01 00:23:17;;;;;;;5.60;3.25;;;;;;;12.29;nan;99447.63;4989512;28;20026;-47
2023/04/01 00:25:43;;;;;;;4.78;3.35;;;;;;;12.31;nan;99453.59;4989005;28;20156;-46
2023/04/01 00:28:09;;;;;;;4.60;2.65;;;;;;;12.30;nan;99451.94;4990640;28;20117;-46
2023/04/01 00:30:36;;;;;;;5.88;3.33;;;;;;;12.30;nan;99444.03;4987518;28;20473;-47
2023/04/01 00:33:02;;;;;;;6.38;3.00;;;;;;;12.31;nan;99449.16;4987587;28;20113;-46
2023/04/01 00:35:28;;;;;;;6.35;2.65;;;;;;;12.32;nan;99450.00;4987517;28;20117;-45
2023/04/01 00:37:54;;;;;;;7.38;3.58;;;;;;;12.34;nan;99450.69;4988076;28;20034;-45
2023/04/01 00:40:38;;;;;;;8.32;3.65;;;;;;;12.32;nan;99450.81;4991120;28;20441;-46
2023/04/01 00:43:09;;;;;;;4.60;2.92;;;;;;;12.32;nan;99447.38;4986088;28;20404;-43
2023/04/01 00:45:38;;;;;;;5.40;2.83;;;;;;;12.37;nan;99444.34;4989088;28;20022;-47
2023/04/01 00:48:10;;;;;;;7.03;3.65;;;;;;;12.32;nan;99450.81;4986481;28;20053;-47
2023/04/01 00:50:38;;;;;;;8.33;3.63;;;;;;;12.32;nan;99440.28;4985443;28;20022;-45
2023/04/01 00:53:06;;;;;;;5.53;3.47;;;;;;;12.33;nan;99449.88;4985841;28;20066;-46
2023/04/01 00:55:35;;;;;;;6.88;3.65;;;;;;;12.32;nan;99445.56;4985357;28;20030;-46
2023/04/01 00:58:03;;;;;;;8.80;4.10;;;;;;;12.31;nan;99445.69;4987635;28;20034;-46
2023/04/01 01:00:31;;;;;;;6.20;4.03;;;;;;;12.30;nan;99444.03;4987060;28;20022;-47
2023/04/01 01:02:57;;;;;;;7.13;4.13;;;;;;;12.33;nan;99446.38;4981867;28;20039;-47
2023/04/01 01:05:36;;;;;;;9.30;4.38;;;;;;;12.37;nan;99445.16;4985769;28;20429;-45
2023/04/01 01:08:22;;;;;;;9.15;3.22;;;;;;;12.34;nan;99443.63;4984330;28;20031;-45
2023/04/01 01:10:49;;;;;;;6.90;3.55;;;;;;;12.34;nan;99442.78;4981712;28;20114;-47
2023/04/01 01:13:25;;;;;;;7.63;3.58;;;;;;;12.34;nan;99441.00;4979881;28;20060;-46
2023/04/01 01:16:18;;;;;;;5.47;3.33;;;;;;;12.32;nan;99440.28;4977398;28;20030;-48
2023/04/01 01:19:07;;;;;;;7.40;4.03;;;;;;;12.31;nan;99448.34;4972942;28;20031;-46
2023/04/01 01:21:48;;;;;;;9.02;3.70;;;;;;;12.30;nan;99438.75;4980627;28;20386;-46
2023/04/01 01:24:24;;;;;;;8.95;3.55;;;;;;;12.29;nan;99445.00;4980948;28;20300;-46
2023/04/01 01:27:09;;;;;;;6.05;3.83;;;;;;;12.29;nan;99445.00;4988056;28;20030;-46
2023/04/01 01:29:55;;;;;;;6.28;3.63;;;;;;;12.28;nan;99445.94;4985719;28;20670;-45
2023/04/01 01:32:26;;;;;;;6.78;3.33;;;;;;;12.28;nan;99444.13;4985593;28;20039;-45
2023/04/01 01:35:07;;;;;;;7.73;3.57;;;;;;;12.28;nan;99449.41;4989054;28;20109;-45
2023/04/01 01:37:33;;;;;;;6.88;3.75;;;;;;;12.31;nan;99449.16;4986219;28;20038;-46
2023/04/01 01:40:03;;;;;;;5.13;2.47;;;;;;;12.34;nan;99453.31;4985931;28;20377;-46
2023/04/01 01:42:34;;;;;;;5.53;3.42;;;;;;;12.38;nan;99451.28;4985211;28;20030;-46
2023/04/01 01:45:02;;;;;;;7.32;3.72;;;;;;;12.42;nan;99460.56;4982048;28;20125;-46
2023/04/01 01:47:29;;;;;;;6.65;3.38;;;;;;;12.43;nan;99455.19;4981174;28;20121;-46
2023/04/01 01:49:56;;;;;;;8.40;3.22;;;;;;;12.47;nan;99453.97;4985570;28;20033;-46
2023/04/01 01:52:23;;;;;;;8.77;4.07;;;;;;;12.46;nan;99448.81;4989577;28;20042;-45
2023/04/01 01:54:53;;;;;;;10.40;3.85;;;;;;;12.54;nan;99458.69;4990533;28;20031;-46
2023/04/01 01:57:25;;;;;;;7.57;3.88;;;;;;;12.55;nan;99463.84;4986074;28;20022;-46
2023/04/01 01:59:55;;;;;;;7.30;4.03;;;;;;;12.58;nan;99460.09;4983223;28;20420;-45
2023/04/01 02:02:22;;;;;;;6.43;3.28;;;;;;;12.59;nan;99465.25;4984438;28;20041;-45
2023/04/01 02:04:50;;;;;;;8.05;4.60;;;;;;;12.60;nan;99463.44;4988419;28;20425;-45
2023/04/01 02:07:21;;;;;;;6.80;3.78;;;;;;;12.58;nan;99465.38;4987914;28;20045;-46
2023/04/01 02:09:48;;;;;;;6.55;3.67;;;;;;;12.55;nan;99461.22;4985862;28;20034;-45
2023/04/01 02:12:17;;;;;;;7.22;4.40;;;;;;;12.53;nan;99463.16;4988344;28;20037;-46
2023/04/01 02:14:49;;;;;;;7.82;4.13;;;;;;;12.55;nan;99461.22;4986113;28;20397;-46
2023/04/01 02:17:21;;;;;;;7.68;4.03;;;;;;;12.59;nan;99467.88;4989696;28;20033;-46
2023/04/01 02:19:52;;;;;;;5.97;3.63;;;;;;;12.60;nan;99471.38;4978608;28;20500;-46
2023/04/01 02:22:23;;;;;;;6.95;4.00;;;;;;;12.64;nan;99467.47;4989264;28;20512;-46
2023/04/01 02:24:52;;;;;;;6.07;3.45;;;;;;;12.64;nan;99470.97;4988174;28;20022;-46
2023/04/01 02:27:19;;;;;;;7.53;4.45;;;;;;;12.65;nan;99471.78;4977511;28;20370;-46
2023/04/01 02:29:44;;;;;;;9.23;4.38;;;;;;;12.66;nan;99476.09;4992034;28;20034;-47
2023/04/01 02:32:10;;;;;;;11.68;5.93;;;;;;;12.67;nan;99476.94;4982918;28;20034;-46
2023/04/01 02:34:36;;;;;;;12.20;6.35;;;;;;;12.67;nan;99485.69;4982103;28;21454;-46
2023/04/01 02:37:02;;;;;;;15.40;8.55;;;;;;;12.66;nan;99484.00;4988921;28;20042;-46
2023/04/01 02:39:27;;;;;;;33.65;17.05;;;;;;;12.65;nan;99485.84;4989570;28;20102;-46
2023/04/01 02:41:53;;;;;;;18.73;9.55;;;;;;;12.66;nan;99484.00;4991914;28;20029;-46
2023/04/01 02:44:18;;;;;;;11.50;5.82;;;;;;;12.65;nan;99485.84;4987502;28;20042;-46
2023/04/01 02:46:44;;;;;;;10.65;5.80;;;;;;;12.62;nan;99483.44;4984351;28;20062;-46
2023/04/01 02:49:10;;;;;;;13.68;6.40;;;;;;;12.65;nan;99492.91;4990728;28;20034;-47
2023/04/01 02:51:35;;;;;;;10.65;5.72;;;;;;;12.66;nan;99497.22;4985694;28;20029;-45
2023/04/01 02:54:01;;;;;;;11.80;6.40;;;;;;;12.64;nan;99499.13;4982976;28;20117;-46
2023/04/01 02:56:26;;;;;;;11.98;5.30;;;;;;;12.59;nan;99498.72;4980416;28;20030;-46
2023/04/01 02:58:53;;;;;;;10.32;5.55;;;;;;;12.57;nan;99505.94;4985594;28;20033;-45
2023/04/01 03:01:19;;;;;;;9.80;5.45;;;;;;;12.58;nan;99502.31;4985670;28;20057;-45
2023/04/01 03:03:44;;;;;;;9.40;4.90;;;;;;;12.55;nan;99513.13;4981087;28;20400;-46
2023/04/01 03:06:13;;;;;;;8.82;4.85;;;;;;;12.55;nan;99508.72;4989434;28;20032;-45
2023/04/01 03:08:39;;;;;;;8.68;4.82;;;;;;;12.52;nan;99508.97;4988684;28;20042;-45
2023/04/01 03:11:05;;;;;;;7.85;4.63;;;;;;;12.52;nan;99516.03;4990332;28;20030;-45
2023/04/01 03:13:32;;;;;;;11.23;5.18;;;;;;;12.52;nan;99524.81;4994408;28;20043;-45
2023/04/01 03:15:57;;;;;;;9.13;4.28;;;;;;;12.50;nan;99517.00;4979333;28;20646;-46
2023/04/01 03:18:23;;;;;;;8.85;4.22;;;;;;;12.46;nan;99518.25;4977429;28;20038;-45
2023/04/01 03:20:48;;;;;;;7.97;4.47;;;;;;;12.44;nan;99527.25;4982026;28;20030;-45
2023/04/01 03:23:14;;;;;;;10.25;5.40;;;;;;;12.38;nan;99522.50;4986587;28;20403;-46
2023/04/01 03:25:39;;;;;;;13.73;6.05;;;;;;;12.34;nan;99524.53;4984602;28;20037;-46
2023/04/01 03:28:05;;;;;;;14.65;6.60;;;;;;;12.30;nan;99525.78;4986009;28;20038;-46
2023/04/01 03:30:31;;;;;;;17.25;8.13;;;;;;;12.15;nan;99526.13;4986813;28;20027;-45
2023/04/01 03:32:57;;;;;;;14.00;7.57;;;;;;;12.02;nan;99525.47;4979472;28;20041;-44
2023/04/01 03:35:23;;;;;;;11.25;6.32;;;;;;;11.82;nan;99538.47;4983764;28;20035;-46
2023/04/01 03:37:51;;;;;;;13.77;6.90;;;;;;;11.75;nan;99537.28;4985832;28;20125;-45
2023/04/01 03:40:16;;;;;;;14.05;6.80;;;;;;;11.67;nan;99545.00;4983911;28;20122;-46
2023/04/01 03:42:42;;;;;;;15.20;7.13;;;;;;;11.54;nan;99551.25;4985983;28;20069;-46
2023/04/01 03:45:08;;;;;;;12.40;7.40;;;;;;;11.47;nan;99549.25;4978029;28;20056;-47
2023/04/01 03:47:34;;;;;;;14.25;7.65;;;;;;;11.34;nan;99549.38;4981032;28;20018;-46
2023/04/01 03:49:59;;;;;;;12.85;7.10;;;;;;;11.31;nan;99547.00;4989018;28;20037;-47
2023/04/01 03:52:25;;;;;;;12.63;6.72;;;;;;;11.21;nan;99553.00;4989475;28;20092;-44
2023/04/01 03:54:50;;;;;;;11.07;6.43;;;;;;;11.14;nan;99559.69;4988413;28;20033;-44
2023/04/01 03:57:15;;;;;;;11.85;6.35;;;;;;;11.06;nan;99557.66;4983010;28;20038;-48
2023/04/01 03:59:41;;;;;;;11.63;6.22;;;;;;;11.01;nan;99553.72;4981894;28;20042;-47
2023/04/01 04:02:06;;;;;;;5.15;2.75;;;;;;;10.93;nan;99564.84;4978393;28;20393;-49
2023/04/01 04:04:32;;;;;;;6.78;4.40;;;;;;;10.87;nan;99563.53;4981442;28;20046;-49
2023/04/01 04:06:57;;;;;;;10.77;5.88;;;;;;;10.85;nan;99570.72;4988500;28;20105;-45
2023/04/01 04:09:23;;;;;;;9.30;4.57;;;;;;;10.82;nan;99577.06;4983949;28;20039;-46
2023/04/01 04:11:49;;;;;;;7.20;3.70;;;;;;;10.78;nan;99575.63;4987661;28;20014;-46
2023/04/01 04:14:14;;;;;;;6.18;3.90;;;;;;;10.76;nan;99576.72;4986648;28;20051;-47
2023/04/01 04:16:40;;;;;;;7.50;3.72;;;;;;;10.73;nan;99580.41;4978597;28;20437;-45
2023/04/01 04:19:05;;;;;;;8.60;5.43;;;;;;;10.71;nan;99589.38;4977599;28;20041;-46
2023/04/01 04:21:31;;;;;;;9.10;5.63;;;;;;;10.69;nan;99586.88;4984376;28;20033;-47
2023/04/01 04:23:57;;;;;;;9.45;6.28;;;;;;;10.59;nan;99592.00;4988174;28;20026;-47
2023/04/01 04:26:23;;;;;;;14.02;8.00;;;;;;;10.49;nan;99598.91;4987115;28;20022;-47
2023/04/01 04:28:48;;;;;;;12.23;7.40;;;;;;;10.47;nan;99604.28;4986760;28;20045;-48
2023/04/01 04:31:20;;;;;;;10.60;6.78;;;;;;;10.44;nan;99604.50;4982322;28;20041;-44
2023/04/01 04:33:45;;;;;;;9.48;6.80;;;;;;;10.35;nan;99610.44;4986162;28;20173;-47
2023/04/01 04:36:11;;;;;;;11.57;7.30;;;;;;;10.32;nan;99608.88;4987642;28;20491;-45
2023/04/01 04:38:36;;;;;;;14.48;7.13;;;;;;;10.33;nan;99610.56;4978160;28;20054;-47
2023/04/01 04:41:02;;;;;;;12.30;6.57;;;;;;;10.29;nan;99618.75;4979348;28;20026;-45
2023/04/01 04:43:27;;;;;;;9.95;6.63;;;;;;;10.20;nan;99622.94;4980133;28;20069;-44
2023/04/01 04:45:53;;;;;;;9.43;6.07;;;;;;;10.12;nan;99620.88;4987737;28;20045;-46
2023/04/01 04:48:19;;;;;;;10.05;5.80;;;;;;;10.10;nan;99627.19;4981112;28;20022;-46
2023/04/01 04:50:47;;;;;;;9.48;5.82;;;;;;;10.04;nan;99629.31;4987122;28;20022;-44
2023/04/01 04:53:13;;;;;;;11.10;5.47;;;;;;;9.96;nan;99626.41;4986722;28;20038;-43
2023/04/01 04:55:44;;;;;;;8.23;5.20;;;;;;;9.95;nan;99634.41;4983788;28;20042;-45
2023/04/01 04:58:09;;;;;;;10.00;4.53;;;;;;;9.96;nan;99636.91;4983183;28;20053;-47
2023/04/01 05:00:35;;;;;;;9.63;4.68;;;;;;;9.99;nan;99643.72;4974783;28;22160;-49
2023/04/01 05:03:00;;;;;;;13.32;7.60;;;;;;;10.03;nan;99643.41;4962336;28;20129;-48
2023/04/01 05:05:26;;;;;;;7.35;4.80;;;;;;;10.01;nan;99649.72;4985687;28;20040;-44
2023/04/01 05:07:51;;;;;;;8.35;4.72;;;;;;;9.91;nan;99646.91;4982978;28;20052;-46
2023/04/01 05:10:17;;;;;;;7.75;5.32;;;;;;;9.92;nan;99653.84;4984068;28;20021;-46
2023/04/01 05:12:42;;;;;;;8.30;5.07;;;;;;;9.95;nan;99651.00;4982418;28;20038;-49
2023/04/01 05:15:08;;;;;;;8.57;4.72;;;;;;;9.94;nan;99649.31;4988631;28;20034;-47
2023/04/01 05:17:34;;;;;;;10.73;4.50;;;;;;;9.87;nan;99659.44;4987392;28;20042;-47
2023/04/01 05:19:59;;;;;;;7.18;4.80;;;;;;;9.86;nan;99657.75;4987340;28;20041;-47
2023/04/01 05:22:25;;;;;;;7.47;4.10;;;;;;;9.85;nan;99660.50;4982618;28;20030;-44
2023/04/01 05:24:51;;;;;;;8.05;4.05;;;;;;;9.84;nan;99664.09;4991251;28;20624;-47
2023/04/01 05:27:17;;;;;;;8.18;4.10;;;;;;;9.81;nan;99669.56;4979798;28;20526;-46
2023/04/01 05:29:42;;;;;;;12.48;6.50;;;;;;;9.81;nan;99669.56;4989456;28;20046;-46
2023/04/01 05:32:08;;;;;;;9.85;4.75;;;;;;;9.82;nan;99671.25;4980067;28;20118;-48
2023/04/01 05:34:33;;;;;;;8.93;4.30;;;;;;;9.81;nan;99674.81;4983434;28;20045;-47
2023/04/01 05:36:59;;;;;;;8.30;3.33;;;;;;;9.81;nan;99680.91;4982683;28;20125;-45
2023/04/01 05:39:24;;;;;;;6.68;4.35;;;;;;;9.79;nan;99680.19;4988642;28;20037;-49
2023/04/01 05:41:50;;;;;;;8.23;4.18;;;;;;;9.75;nan;99679.56;4987293;28;20468;-47
2023/04/01 05:44:15;;;;;;;8.73;4.57;;;;;;;9.72;nan;99685.03;4991242;28;20034;-45
2023/04/01 05:46:41;;;;;;;6.78;4.18;;;;;;;9.74;nan;99692.81;4988649;28;20045;-44
2023/04/01 05:49:07;;;;;;;10.85;6.30;;;;;;;9.63;nan;99685.69;4982247;28;20073;-47
2023/04/01 05:51:33;;;;;;;8.20;4.38;;;;;;;9.62;nan;99686.63;4984632;28;20101;-46
2023/04/01 05:53:58;;;;;;;7.15;4.70;;;;;;;9.63;nan;99690.09;4985244;28;20097;-45
2023/04/01 05:56:23;;;;;;;7.20;4.85;;;;;;;9.65;nan;99696.91;4984785;28;20034;-46
2023/04/01 05:58:53;;;;;;;7.50;4.40;;;;;;;9.64;nan;99689.97;4986254;28;20038;-46
2023/04/01 06:01:18;;;;;;;7.90;4.97;;;;;;;9.72;nan;99695.56;4987869;28;20038;-47
2023/04/01 06:03:44;;;;;;;10.48;5.70;;;;;;;9.76;nan;99698.78;4990012;28;20110;-46
2023/04/01 06:06:23;;;;;;;8.27;4.25;;;;;;;9.76;nan;99704.88;4989099;28;20038;-47
2023/04/01 06:08:49;;;;;;;9.38;5.53;;;;;;;9.82;nan;99708.88;4982824;28;20499;-44
2023/04/01 06:11:40;;;;;;;9.07;5.75;;;;;;;9.86;nan;99714.75;4985768;28;20049;-47
2023/04/01 06:14:22;;;;;;;12.45;6.28;;;;;;;9.88;nan;99712.84;4977567;28;20039;-47
2023/04/01 06:17:23;;;;;;;10.07;5.72;;;;;;;9.87;nan;99717.25;4989134;28;20026;-45
2023/04/01 06:19:51;;;;;;;11.27;5.55;;;;;;;9.82;nan;99723.78;4971669;28;20440;-46
2023/04/01 06:22:46;;;;;;;13.23;6.72;;;;;;;9.82;nan;99736.91;4986931;28;20030;-46
2023/04/01 06:25:30;;;;;;;8.77;6.03;;;;;;;9.82;nan;99723.78;4987093;28;20028;-46
2023/04/01 06:28:05;;;;;;;9.82;5.72;;;;;;;9.80;nan;99731.78;4989949;28;20031;-46
2023/04/01 06:30:30;;;;;;;11.60;6.13;;;;;;;9.76;nan;99736.41;4988357;28;20516;-45
2023/04/01 06:33:33;;;;;;;10.52;5.60;;;;;;;9.78;nan;99736.31;4982790;28;20031;-46
2023/04/01 06:36:34;;;;;;;12.95;7.07;;;;;;;9.80;nan;99737.03;4986720;28;20031;-46
2023/04/01 06:39:37;;;;;;;15.77;8.02;;;;;;;9.85;nan;99750.66;4985896;28;20465;-46
2023/04/01 06:42:02;;;;;;;;;;;;;;;9.82;nan;99750.06;4983387;28;20108;-47
2023/04/01 06:45:10;;;;;;;9.40;6.40;;;;;;;9.77;nan;99748.59;4978293;28;19972;-46
2023/04/01 06:48:13;;;;;;;9.63;6.25;;;;;;;9.72;nan;99750.72;4986064;28;20683;-46
2023/04/01 06:50:56;;;;;;;11.77;6.40;;;;;;;9.75;nan;99755.75;4991508;28;20433;-46
2023/04/01 06:53:28;;;;;;;9.18;5.50;;;;;;;9.80;nan;99755.44;4986119;28;20050;-46
2023/04/01 06:56:02;;;;;;;10.60;6.05;;;;;;;9.80;nan;99757.19;4990575;28;20481;-46
2023/04/01 06:58:35;;;;;;;20.63;10.18;;;;;;;9.84;nan;99758.69;4976392;28;20140;-46
2023/04/01 07:01:06;;;;;;;9.10;6.05;;;;;;;9.88;nan;99765.41;4976210;28;20030;-46
2023/04/01 07:03:44;;;;;;;7.90;4.33;;;;;;;9.87;nan;99768.97;4976722;28;20576;-46
2023/04/01 07:06:32;;;;;;;9.48;5.50;;;;;;;9.91;nan;99776.53;4983549;28;20050;-45
2023/04/01 07:09:02;;;;;;;9.45;6.15;;;;;;;9.88;nan;99775.91;4983500;28;20030;-46
2023/04/01 07:11:34;;;;;;;11.30;5.63;;;;;;;9.91;nan;99776.53;4990466;28;20030;-47
2023/04/01 07:14:06;;;;;;;8.05;5.00;;;;;;;9.85;nan;99778.75;4989801;28;20042;-46
2023/04/01 07:16:37;;;;;;;9.10;5.57;;;;;;;9.81;nan;99778.13;4982151;28;20034;-46
2023/04/01 07:19:12;;;;;;;12.10;5.65;;;;;;;9.81;nan;99777.28;4978897;28;20160;-45
2023/04/01 07:21:47;;;;;;;12.10;5.60;;;;;;;9.85;nan;99784.00;4985614;28;20038;-45
2023/04/01 07:24:25;;;;;;;9.73;5.05;;;;;;;9.82;nan;99792.09;4984823;28;20389;-46
2023/04/01 07:26:55;;;;;;;11.80;5.50;;;;;;;9.87;nan;99800.50;4979487;28;20034;-46
2023/04/01 07:29:20;;;;;;;8.30;5.25;;;;;;;9.80;nan;99797.47;4979718;28;20505;-46
2023/04/01 07:32:04;;;;;;;9.18;5.68;;;;;;;9.76;nan;99798.63;4975446;28;20029;-46
2023/04/01 07:35:00;;;;;;;10.73;5.72;;;;;;;9.74;nan;99805.75;4971991;28;20034;-46
2023/04/01 07:37:39;;;;;;;9.77;5.55;;;;;;;9.74;nan;99806.63;4973944;28;20045;-46
2023/04/01 07:40:27;;;;;;;7.90;4.70;;;;;;;9.71;nan;99806.81;4974612;28;20069;-46
2023/04/01 07:43:04;;;;;;;8.88;5.63;;;;;;;9.71;nan;99812.09;4969920;28;20035;-48
2023/04/01 07:45:42;;;;;;;9.98;5.75;;;;;;;9.72;nan;99808.50;4981922;28;20033;-46
2023/04/01 07:48:22;;;;;;;10.95;5.78;;;;;;;9.72;nan;99813.75;4972896;28;20148;-45
2023/04/01 07:51:18;;;;;;;10.57;5.82;;;;;;;9.78;nan;99812.50;4973132;28;20035;-45
2023/04/01 07:53:57;;;;;;;9.60;6.40;;;;;;;9.84;nan;99819.94;4974170;28;20490;-45
2023/04/01 07:56:34;;;;;;;13.10;7.40;;;;;;;9.82;nan;99821.00;4979512;28;20069;-47
2023/04/01 07:59:31;;;;;;;11.88;7.05;;;;;;;9.77;nan;99832.66;4971129;28;20031;-45
2023/04/01 08:02:30;;;;;;;20.30;10.07;;;;;;;9.79;nan;99829.09;4975195;28;20489;-45
2023/04/01 08:05:20;;;;;;;12.18;8.07;;;;;;;9.81;nan;99841.19;4958383;28;20133;-45
2023/04/01 08:07:55;;;;;;;13.15;8.63;;;;;;;9.85;nan;99837.38;4974438;28;20037;-45
2023/04/01 08:10:40;;;;;;;11.68;6.75;;;;;;;9.82;nan;99839.38;4978628;28;20026;-45
2023/04/01 08:13:24;;;;;;;11.95;6.30;;;;;;;9.80;nan;99846.53;4980331;28;20659;-45
2023/04/01 08:15:59;;;;;;;12.95;7.03;;;;;;;9.77;nan;99848.41;4978341;28;20026;-44
2023/04/01 08:18:43;;;;;;;13.05;6.70;;;;;;;9.77;nan;99853.69;4982590;28;20022;-45
2023/04/01 08:21:34;;;;;;;10.32;6.93;;;;;;;9.80;nan;99855.28;4984791;28;20029;-46
2023/04/01 08:24:12;;;;;;;6.93;3.97;;;;;;;9.77;nan;99852.84;4980384;28;20489;-45
2023/04/01 08:26:45;;;;;;;11.02;5.90;;;;;;;9.78;nan;99851.91;4978585;28;20026;-47
2023/04/01 08:29:15;;;;;;;18.10;9.57;;;;;;;9.79;nan;99865.88;4986002;28;20087;-45
2023/04/01 08:31:58;;;;;;;13.50;6.88;;;;;;;9.79;nan;99865.88;4978493;28;20042;-45
2023/04/01 08:34:29;;;;;;;13.25;6.47;;;;;;;9.73;nan;99861.88;4985862;28;20501;-45
2023/04/01 08:37:06;;;;;;;12.90;5.90;;;;;;;9.70;nan;99867.34;4981255;28;20044;-45
2023/04/01 08:39:39;;;;;;;15.23;6.82;;;;;;;9.68;nan;99872.69;4987552;28;20026;-46
2023/04/01 08:42:17;;;;;;;11.88;6.15;;;;;;;9.66;nan;99877.22;4980577;28;20037;-46
2023/04/01 08:45:00;;;;;;;13.13;7.40;;;;;;;9.64;nan;99879.09;4987873;28;20039;-45
2023/04/01 08:47:46;;;;;;;11.98;6.65;;;;;;;9.64;nan;99880.91;4981905;28;20473;-45
2023/04/01 08:50:37;;;;;;;14.45;6.90;;;;;;;9.61;nan;99879.31;4986749;28;20030;-46
2023/04/01 08:53:11;;;;;;;12.90;7.20;;;;;;;9.65;nan;99888.66;4986553;28;20058;-45
2023/04/01 08:55:40;;;;;;;17.13;8.32;;;;;;;9.61;nan;99881.94;4985090;28;20062;-45
2023/04/01 08:58:26;;;;;;;11.98;7.10;;;;;;;9.68;nan;99891.09;4983933;28;20493;-45
2023/04/01 09:01:09;;;;;;;12.13;6.68;;;;;;;9.77;nan;99890.47;4985061;28;20039;-45
2023/04/01 09:03:47;;;;;;;10.68;5.50;;;;;;;9.80;nan;99888.56;4983617;28;20026;-48
2023/04/01 09:06:25;;;;;;;12.43;5.40;;;;;;;9.84;nan;99888.25;4980281;28;20482;-46
2023/04/01 09:09:09;;;;;;;11.57;5.57;;;;;;;9.94;nan;99895.53;4986209;28;20027;-45
2023/04/01 09:11:46;;;;;;;10.77;5.55;;;;;;;9.99;nan;99890.78;4983955;28;20022;-46
2023/04/01 09:14:33;;;;;;;15.82;6.18;;;;;;;10.02;nan;99904.56;4976162;28;20044;-47
2023/04/01 09:17:20;;;;;;;11.27;4.90;;;;;;;10.05;nan;99906.13;4981901;28;20754;-46
2023/04/01 09:20:23;;;;;;;27.23;12.75;;;;;;;10.02;nan;99909.81;4981719;28;20436;-45
2023/04/01 09:22:57;;;;;;;;;;;;;;;9.97;nan;99919.78;4988362;28;20106;-45
2023/04/01 09:25:31;;;;;;;11.75;7.20;;;;;;;9.94;nan;99917.38;4988465;28;19913;-45
2023/04/01 09:28:10;;;;;;;12.50;7.15;;;;;;;9.94;nan;99927.06;4989563;28;20057;-45
2023/04/01 09:30:54;;;;;;;13.45;7.25;;;;;;;9.99;nan;99928.41;4988497;28;20030;-46
2023/04/01 09:34:16;;;;;;;13.95;6.65;;;;;;;10.03;nan;99924.66;4979988;28;20109;-46
2023/04/01 09:36:57;;;;;;;12.55;7.13;;;;;;;10.04;nan;99928.97;4962127;28;20062;-46
2023/04/01 09:40:02;;;;;;;13.13;6.80;;;;;;;10.02;nan;99938.72;4962810;28;20031;-45
2023/04/01 09:43:00;;;;;;;12.65;6.38;;;;;;;10.02;nan;99938.72;4967446;28;20039;-45
2023/04/01 09:45:34;;;;;;;10.60;6.28;;;;;;;10.04;nan;99943.88;4989416;28;20054;-47
2023/04/01 09:48:14;;;;;;;9.52;5.38;;;;;;;9.99;nan;99944.19;4980341;28;20113;-45
2023/04/01 09:51:05;;;;;;;13.75;7.53;;;;;;;9.98;nan;99945.13;4986712;28;20029;-45
2023/04/01 09:54:02;;;;;;;14.27;7.05;;;;;;;9.91;nan;99946.47;4987290;28;20050;-45
2023/04/01 09:56:30;;;;;;;9.88;5.95;;;;;;;9.90;nan;99950.91;4980287;28;20038;-45
2023/04/01 09:59:21;;;;;;;10.75;5.45;;;;;;;9.97;nan;99959.22;4991209;28;20034;-45
2023/04/01 10:02:02;;;;;;;10.57;6.10;;;;;;;9.93;nan;99965.63;4984289;28;20113;-45
2023/04/01 10:05:00;;;;;;;9.73;6.53;;;;;;;9.91;nan;99957.00;4984801;28;20034;-46
2023/04/01 10:07:28;;;;;;;10.13;5.18;;;;;;;9.89;nan;99964.16;4983006;28;20050;-48
2023/04/01 10:09:59;;;;;;;8.50;5.45;;;;;;;9.84;nan;99967.06;4991487;28;20026;-45
2023/04/01 10:12:46;;;;;;;8.00;4.87;;;;;;;9.86;nan;99959.13;4992654;28;20497;-46
2023/04/01 10:15:30;;;;;;;10.82;6.00;;;;;;;9.83;nan;99969.81;4992461;28;20297;-45
2023/04/01 10:18:12;;;;;;;13.57;6.65;;;;;;;9.72;nan;99971.38;4988733;28;20053;-46
2023/04/01 10:21:02;;;;;;;9.32;4.82;;;;;;;9.60;nan;99978.28;4988481;28;20034;-45
2023/04/01 10:23:37;;;;;;;7.57;4.88;;;;;;;9.52;nan;99969.22;4986847;28;20098;-46
2023/04/01 10:26:21;;;;;;;20.50;9.27;;;;;;;9.52;nan;99979.72;4989669;28;20026;-46
2023/04/01 10:29:13;;;;;;;12.10;5.85;;;;;;;9.49;nan;99974.66;4988417;28;20034;-46
2023/04/01 10:32:04;;;;;;;8.57;4.38;;;;;;;9.46;nan;99980.97;4987846;28;20045;-45
2023/04/01 10:34:29;;;;;;;9.48;3.78;;;;;;;9.42;nan;99980.34;4987942;28;20100;-45
2023/04/01 10:37:08;;;;;;;5.82;3.90;;;;;;;9.51;nan;99984.16;4992408;28;20038;-46
2023/04/01 10:40:05;;;;;;;7.75;4.10;;;;;;;9.51;nan;99985.94;4992329;28;20404;-46
2023/04/01 10:42:45;;;;;;;5.68;3.83;;;;;;;9.55;nan;99992.66;4985063;28;20030;-45
2023/04/01 10:45:38;;;;;;;9.32;5.28;;;;;;;9.55;nan;99997.91;4991057;28;20026;-45
2023/04/01 10:48:21;;;;;;;7.68;4.47;;;;;;;9.60;nan;99990.59;4985651;28;20512;-45
2023/04/01 10:51:19;;;;;;;10.02;5.43;;;;;;;9.67;nan;99997.13;4987098;28;20019;-45
2023/04/01 10:54:20;;;;;;;9.45;5.45;;;;;;;9.68;nan;99996.16;4988614;28;20699;-45
2023/04/01 10:56:57;;;;;;;6.28;3.83;;;;;;;9.67;nan;99999.75;4983506;28;20042;-45
2023/04/01 10:59:56;;;;;;;7.63;4.47;;;;;;;9.70;nan;100003.94;4983207;28;20037;-45
2023/04/01 11:03:08;;;;;;;9.05;4.57;;;;;;;9.70;nan;100003.94;4984453;28;20125;-45
2023/04/01 11:05:55;;;;;;;12.53;6.07;;;;;;;9.66;nan;100003.31;4988735;28;20026;-45
2023/04/01 11:09:05;;;;;;;8.52;4.85;;;;;;;9.69;nan;100008.38;4990711;28;20037;-46
2023/04/01 11:11:34;;;;;;;8.38;4.00;;;;;;;9.70;nan;100007.41;4980621;28;20117;-47
2023/04/01 11:14:02;;;;;;;7.40;4.15;;;;;;;9.72;nan;100018.69;4989132;28;20425;-46
2023/04/01 11:16:48;;;;;;;7.72;3.38;;;;;;;9.72;nan;100010.78;4984924;28;20198;-46
2023/04/01 11:19:29;;;;;;;5.18;2.10;;;;;;;9.70;nan;100012.69;4984936;28;20030;-45
2023/04/01 11:22:15;;;;;;;4.32;2.58;;;;;;;9.77;nan;100021.81;4984813;28;20023;-45
2023/04/01 11:25:08;;;;;;;5.35;3.30;;;;;;;9.75;nan;100022.88;4987592;28;20420;-45
2023/04/01 11:27:49;;;;;;;6.45;3.00;;;;;;;9.66;nan;100024.31;4988352;28;20033;-45
2023/04/01 11:30:24;;;;;;;5.70;2.97;;;;;;;9.65;nan;100029.69;4983502;28;20034;-46
2023/04/01 11:32:57;;;;;;;5.50;2.85;;;;;;;9.48;nan;100031.63;4983517;28;20394;-45
2023/04/01 11:35:52;;;;;;;5.47;3.03;;;;;;;9.31;nan;100035.31;4983795;28;20085;-45
2023/04/01 11:38:49;;;;;;;6.40;3.13;;;;;;;9.25;nan;100035.72;4989206;28;20033;-45
2023/04/01 11:41:52;;;;;;;9.80;4.10;;;;;;;9.19;nan;100042.22;4982283;28;20022;-45
2023/04/01 11:44:28;;;;;;;4.82;2.90;;;;;;;9.23;nan;100048.09;4981112;28;20578;-45
2023/04/01 11:47:24;;;;;;;7.60;4.22;;;;;;;9.30;nan;100049.41;4984531;28;20130;-46
2023/04/01 11:50:29;;;;;;;5.88;2.90;;;;;;;9.21;nan;100049.97;4984823;28;20408;-45
2023/04/01 11:53:10;;;;;;;6.85;3.13;;;;;;;9.17;nan;100053.72;4988877;28;20161;-45
2023/04/01 11:55:41;;;;;;;5.75;3.35;;;;;;;9.19;nan;100057.94;4989787;28;20030;-46
2023/04/01 11:58:28;;;;;;;8.93;4.75;;;;;;;9.17;nan;100056.34;4989244;28;20113;-45
2023/04/01 12:00:54;;;;;;;7.80;3.22;;;;;;;9.17;nan;100070.31;4977007;28;20118;-44
2023/04/01 12:03:35;;;;;;;9.65;3.80;;;;;;;9.20;nan;100064.03;4986820;28;20030;-44
2023/04/01 12:06:06;;;;;;;6.72;3.40;;;;;;;9.21;nan;100084.09;4985405;28;20076;-45
2023/04/01 12:09:22;;;;;;;16.10;7.35;;;;;;;9.22;nan;100084.00;4987639;28;20031;-45
2023/04/01 12:12:06;;;;;;;7.63;4.22;;;;;;;9.23;nan;100083.06;4950392;28;20023;-45
2023/04/01 12:14:48;;;;;;;6.05;4.13;;;;;;;9.32;nan;100079.00;4949564;28;20058;-46
2023/04/01 12:17:26;;;;;;;6.70;4.60;;;;;;;9.35;nan;100083.25;4965084;28;20062;-45
2023/04/01 12:19:56;;;;;;;6.80;4.03;;;;;;;9.36;nan;100088.38;4981761;28;20049;-46
2023/04/01 12:22:43;;;;;;;7.05;3.67;;;;;;;9.32;nan;100094.75;4980197;28;20034;-45
2023/04/01 12:25:41;;;;;;;6.38;3.67;;;;;;;9.26;nan;100084.66;4986067;28;20193;-45
2023/04/01 12:28:23;;;;;;;6.20;3.55;;;;;;;9.24;nan;100097.88;4977371;28;20038;-45
2023/04/01 12:31:06;;;;;;;9.88;3.67;;;;;;;9.24;nan;100102.28;4990049;28;20023;-45